createdAt,value
2023-02-12T00:00:35.395Z,6.23
2023-02-12T00:03:01.875Z,6.39
2023-02-12T00:05:28.336Z,6.28
2023-02-12T00:07:54.847Z,6.32
2023-02-12T00:10:21.339Z,6.36
2023-02-12T00:12:47.859Z,6.32
2023-02-12T00:15:14.559Z,6.32
2023-02-12T00:17:41.026Z,6.38
2023-02-12T00:20:07.982Z,6.31
2023-02-12T00:22:34.467Z,6.35
2023-02-12T00:25:00.944Z,6.37
2023-02-12T00:27:27.397Z,6.30
2023-02-12T00:29:53.870Z,6.32
2023-02-12T00:32:20.389Z,6.32
2023-02-12T00:34:47.173Z,6.24
2023-02-12T00:37:13.646Z,6.33
2023-02-12T00:39:40.139Z,6.30
2023-02-12T00:42:06.648Z,6.26
2023-02-12T00:44:33.215Z,6.31
2023-02-12T00:47:02.358Z,6.28
2023-02-12T00:49:34.212Z,6.35
2023-02-12T00:52:01.677Z,6.35
2023-02-12T00:54:28.829Z,6.33
2023-02-12T00:56:58.133Z,6.37
2023-02-12T00:59:25.085Z,6.37
2023-02-12T01:01:52.110Z,6.38
2023-02-12T01:04:18.643Z,6.34
2023-02-12T01:06:45.137Z,6.31
2023-02-12T01:09:11.722Z,6.31
2023-02-12T01:11:38.482Z,6.25
2023-02-12T01:14:04.994Z,6.31
2023-02-12T01:16:36.489Z,6.31
2023-02-12T01:19:04.270Z,6.25
2023-02-12T01:21:31.715Z,6.31
2023-02-12T01:23:58.252Z,6.30
2023-02-12T01:26:24.832Z,6.25
2023-02-12T01:28:56.276Z,6.30
2023-02-12T01:31:27.859Z,6.32
2023-02-12T01:33:56.152Z,6.30
2023-02-12T01:36:22.896Z,6.27
2023-02-12T01:38:49.430Z,6.28
2023-02-12T01:41:19.573Z,6.31
2023-02-12T01:43:46.601Z,6.28
2023-02-12T01:46:13.704Z,6.30
2023-02-12T01:48:44.820Z,6.25
2023-02-12T01:51:12.788Z,6.25
2023-02-12T01:53:42.589Z,6.25
2023-02-12T01:56:09.581Z,6.21
2023-02-12T01:58:38.654Z,6.27
2023-02-12T02:01:06.973Z,6.31
2023-02-12T02:03:34.066Z,6.34
2023-02-12T02:06:03.782Z,6.26
2023-02-12T02:08:30.586Z,6.22
2023-02-12T02:10:57.360Z,6.15
2023-02-12T02:13:42.467Z,6.20
2023-02-12T02:16:21.222Z,6.18
2023-02-12T02:18:55.681Z,6.13
2023-02-12T02:21:33.477Z,6.23
2023-02-12T02:24:37.509Z,6.23
2023-02-12T02:27:20.345Z,6.24
2023-02-12T02:30:11.704Z,6.16
2023-02-12T02:32:51.250Z,6.21
2023-02-12T02:35:30.217Z,6.16
2023-02-12T02:38:18.647Z,6.21
2023-02-12T02:40:54.513Z,6.19
2023-02-12T02:43:30.289Z,6.17
2023-02-12T02:46:01.349Z,6.14
2023-02-12T02:48:32.571Z,6.15
2023-02-12T02:51:09.383Z,6.13
2023-02-12T02:53:44.070Z,6.10
2023-02-12T02:56:14.060Z,6.08
2023-02-12T02:58:46.549Z,6.19
2023-02-12T03:01:22.435Z,6.09
2023-02-12T03:04:03.652Z,6.16
2023-02-12T03:06:34.709Z,6.10
2023-02-12T03:09:05.308Z,6.16
2023-02-12T03:11:33.486Z,6.18
2023-02-12T03:14:13.509Z,6.08
2023-02-12T03:16:59.114Z,6.09
2023-02-12T03:19:27.045Z,6.05
2023-02-12T03:21:57.659Z,6.06
2023-02-12T03:24:33.124Z,6.12
2023-02-12T03:27:20.737Z,6.09
2023-02-12T03:29:47.280Z,6.08
2023-02-12T03:32:53.349Z,6.12
2023-02-12T03:35:24.195Z,6.07
2023-02-12T03:38:16.622Z,6.08
2023-02-12T03:40:56.274Z,6.10
2023-02-12T03:43:25.551Z,6.09
2023-02-12T03:45:58.139Z,6.10
2023-02-12T03:48:28.598Z,6.07
2023-02-12T03:50:58.490Z,6.00
2023-02-12T03:53:26.324Z,6.06
2023-02-12T03:55:56.458Z,6.07
2023-02-12T03:58:23.587Z,6.03
2023-02-12T04:00:50.351Z,5.99
2023-02-12T04:03:16.853Z,6.02
2023-02-12T04:05:43.333Z,6.05
2023-02-12T04:08:10.345Z,6.02
2023-02-12T04:10:53.924Z,6.02
2023-02-12T04:13:33.032Z,5.96
2023-02-12T04:16:07.701Z,5.96
2023-02-12T04:18:40.475Z,5.99
2023-02-12T04:21:25.193Z,6.01
2023-02-12T04:24:00.632Z,6.08
2023-02-12T04:26:34.330Z,5.96
2023-02-12T04:29:17.215Z,5.98
2023-02-12T04:31:49.901Z,5.99
2023-02-12T04:34:34.677Z,6.04
2023-02-12T04:37:33.133Z,5.94
2023-02-12T04:40:00.025Z,5.99
2023-02-12T04:42:26.522Z,5.94
2023-02-12T04:44:52.994Z,5.94
2023-02-12T04:47:19.462Z,5.94
2023-02-12T04:49:45.949Z,5.94
2023-02-12T04:52:12.418Z,5.95
2023-02-12T04:54:38.917Z,6.03
2023-02-12T04:57:05.394Z,5.89
2023-02-12T04:59:31.875Z,5.95
2023-02-12T05:01:58.406Z,5.83
2023-02-12T05:04:24.879Z,5.93
2023-02-12T05:06:51.392Z,5.89
2023-02-12T05:09:19.184Z,5.79
2023-02-12T05:11:45.677Z,5.76
2023-02-12T05:14:12.222Z,5.78
2023-02-12T05:16:38.760Z,5.82
2023-02-12T05:19:05.289Z,5.80
2023-02-12T05:21:31.762Z,5.79
2023-02-12T05:23:58.373Z,6.00
2023-02-12T05:26:24.850Z,5.95
2023-02-12T05:28:51.314Z,5.83
2023-02-12T05:31:21.146Z,5.82
2023-02-12T05:33:48.182Z,5.67
2023-02-12T05:36:16.316Z,5.64
2023-02-12T05:38:42.916Z,5.66
2023-02-12T05:41:14.377Z,5.65
2023-02-12T05:43:41.012Z,5.64
2023-02-12T05:46:07.765Z,5.64
2023-02-12T05:48:34.271Z,5.67
2023-02-12T05:51:12.461Z,5.71
2023-02-12T05:53:39.137Z,5.74
2023-02-12T05:56:16.403Z,5.79
2023-02-12T05:58:44.585Z,5.78
2023-02-12T06:01:13.132Z,5.76
2023-02-12T06:03:39.684Z,6.04
2023-02-12T06:06:06.346Z,5.98
2023-02-12T06:08:33.070Z,5.95
2023-02-12T06:11:01.468Z,5.88
2023-02-12T06:13:28.114Z,5.81
2023-02-12T06:15:55.004Z,5.77
2023-02-12T06:18:21.722Z,5.72
2023-02-12T06:20:48.404Z,5.72
2023-02-12T06:23:14.973Z,5.71
2023-02-12T06:25:41.429Z,5.65
2023-02-12T06:28:07.954Z,5.67
2023-02-12T06:30:34.941Z,5.67
2023-02-12T06:33:01.672Z,5.74
2023-02-12T06:35:28.365Z,5.72
2023-02-12T06:37:54.850Z,5.72
2023-02-12T06:40:21.373Z,5.70
2023-02-12T06:42:50.127Z,5.73
2023-02-12T06:45:16.817Z,5.62
2023-02-12T06:47:43.318Z,5.64
2023-02-12T06:50:10.072Z,5.72
2023-02-12T06:52:36.550Z,5.76
2023-02-12T06:55:03.030Z,5.69
2023-02-12T06:57:29.960Z,5.69
2023-02-12T06:59:56.668Z,5.68
2023-02-12T07:02:23.165Z,5.74
2023-02-12T07:04:49.632Z,5.82
2023-02-12T07:07:16.121Z,5.84
2023-02-12T07:09:42.583Z,5.78
2023-02-12T07:12:09.050Z,5.76
2023-02-12T07:14:35.530Z,5.82
2023-02-12T07:17:03.846Z,5.77
2023-02-12T07:19:30.685Z,5.76
2023-02-12T07:21:57.212Z,5.82
2023-02-12T07:24:23.706Z,5.85
2023-02-12T07:26:50.181Z,5.82
2023-02-12T07:29:17.159Z,5.92
2023-02-12T07:31:43.679Z,5.83
2023-02-12T07:34:10.479Z,5.84
2023-02-12T07:36:37.019Z,5.83
2023-02-12T07:39:03.678Z,5.89
2023-02-12T07:41:31.759Z,5.87
2023-02-12T07:43:59.877Z,5.87
2023-02-12T07:46:31.113Z,5.86
2023-02-12T07:48:58.663Z,5.89
2023-02-12T07:51:25.173Z,5.93
2023-02-12T07:53:51.651Z,5.93
2023-02-12T07:56:22.636Z,5.99
2023-02-12T07:58:51.815Z,5.95
2023-02-12T08:01:35.261Z,6.01
2023-02-12T08:04:09.903Z,6.05
2023-02-12T08:06:38.763Z,6.09
2023-02-12T08:09:08.129Z,6.07
2023-02-12T08:11:34.639Z,6.05
2023-02-12T08:14:01.154Z,6.02
2023-02-12T08:16:28.109Z,6.16
2023-02-12T08:18:55.307Z,6.04
2023-02-12T08:21:23.143Z,6.09
2023-02-12T08:23:52.559Z,6.15
2023-02-12T08:26:19.896Z,6.10
2023-02-12T08:28:48.497Z,6.19
2023-02-12T08:31:23.015Z,6.20
2023-02-12T08:33:50.150Z,6.17
2023-02-12T08:36:18.942Z,6.32
2023-02-12T08:38:45.697Z,6.16
2023-02-12T08:41:21.340Z,6.15
2023-02-12T08:43:49.231Z,6.36
2023-02-12T08:46:20.357Z,6.24
2023-02-12T08:48:47.000Z,6.24
2023-02-12T08:51:15.299Z,6.28
2023-02-12T08:53:42.832Z,6.35
2023-02-12T08:56:09.562Z,6.33
2023-02-12T08:58:36.202Z,6.41
2023-02-12T09:01:03.351Z,6.38
2023-02-12T09:03:29.896Z,6.47
2023-02-12T09:05:56.732Z,6.60
2023-02-12T09:08:23.369Z,6.56
2023-02-12T09:10:49.829Z,6.54
2023-02-12T09:13:16.366Z,6.52
2023-02-12T09:15:45.079Z,6.52
2023-02-12T09:18:12.361Z,6.52
2023-02-12T09:20:40.001Z,6.62
2023-02-12T09:23:07.409Z,6.69
2023-02-12T09:25:37.796Z,6.62
2023-02-12T09:28:04.662Z,6.67
2023-02-12T09:30:31.221Z,6.63
2023-02-12T09:32:57.743Z,6.66
2023-02-12T09:35:24.409Z,6.82
2023-02-12T09:37:52.567Z,6.94
2023-02-12T09:40:27.097Z,6.91
2023-02-12T09:43:30.690Z,6.79
2023-02-12T09:46:16.927Z,6.89
2023-02-12T09:48:51.529Z,6.86
2023-02-12T09:51:20.868Z,6.74
2023-02-12T09:53:48.401Z,6.77
2023-02-12T09:56:19.072Z,6.84
2023-02-12T09:58:46.660Z,6.94
2023-02-12T10:01:15.058Z,7.09
2023-02-12T10:03:41.614Z,7.21
2023-02-12T10:06:11.669Z,7.17
2023-02-12T10:08:59.292Z,7.17
2023-02-12T10:11:52.698Z,7.28
2023-02-12T10:14:42.111Z,7.39
2023-02-12T10:17:43.357Z,7.41
2023-02-12T10:20:32.040Z,7.58
2023-02-12T10:23:34.217Z,7.77
2023-02-12T10:26:42.713Z,7.74
2023-02-12T10:29:20.628Z,7.67
2023-02-12T10:31:50.492Z,7.54
2023-02-12T10:34:18.499Z,7.58
2023-02-12T10:36:49.551Z,7.57
2023-02-12T10:39:24.280Z,7.47
2023-02-12T10:41:53.408Z,7.47
2023-02-12T10:44:19.921Z,7.35
2023-02-12T10:46:46.453Z,7.35
2023-02-12T10:49:15.118Z,7.40
2023-02-12T10:52:07.377Z,7.26
2023-02-12T10:54:43.839Z,7.12
2023-02-12T10:57:12.398Z,7.19
2023-02-12T10:59:39.937Z,7.22
2023-02-12T11:02:28.002Z,7.16
2023-02-12T11:04:55.103Z,7.10
2023-02-12T11:07:21.717Z,7.08
2023-02-12T11:09:49.679Z,7.08
2023-02-12T11:12:40.908Z,7.16
2023-02-12T11:15:15.827Z,7.13
2023-02-12T11:17:44.005Z,7.15
2023-02-12T11:20:16.517Z,7.22
2023-02-12T11:22:52.898Z,7.19
2023-02-12T11:25:19.453Z,7.27
2023-02-12T11:27:46.188Z,7.40
2023-02-12T11:30:15.606Z,7.51
2023-02-12T11:32:42.943Z,7.29
2023-02-12T11:35:23.841Z,7.18
2023-02-12T11:37:50.397Z,7.21
2023-02-12T11:40:21.945Z,7.44
2023-02-12T11:42:51.992Z,7.42
2023-02-12T11:45:19.394Z,7.63
2023-02-12T11:47:46.472Z,7.64
2023-02-12T11:50:26.409Z,7.45
2023-02-12T11:52:54.510Z,7.67
2023-02-12T11:55:23.643Z,7.67
2023-02-12T11:57:52.010Z,7.53
2023-02-12T12:00:33.587Z,7.41
2023-02-12T12:03:19.492Z,7.46
2023-02-12T12:05:49.268Z,7.60
2023-02-12T12:08:28.105Z,7.63
2023-02-12T12:11:01.912Z,7.50
2023-02-12T12:13:32.428Z,7.46
2023-02-12T12:16:27.862Z,7.50
2023-02-12T12:19:18.252Z,7.54
2023-02-12T12:21:50.651Z,7.48
2023-02-12T12:24:16.981Z,7.45
2023-02-12T12:26:46.489Z,7.42
2023-02-12T12:29:20.163Z,7.46
2023-02-12T12:31:48.547Z,7.49
2023-02-12T12:34:22.481Z,7.62
2023-02-12T12:37:05.221Z,7.59
2023-02-12T12:39:50.355Z,7.64
2023-02-12T12:42:20.117Z,7.69
2023-02-12T12:45:03.188Z,7.68
2023-02-12T12:47:38.882Z,7.52
2023-02-12T12:50:32.128Z,7.67
2023-02-12T12:53:01.157Z,7.67
2023-02-12T12:55:36.656Z,7.86
2023-02-12T12:58:13.050Z,7.89
2023-02-12T13:01:06.142Z,7.78
2023-02-12T13:03:52.941Z,7.75
2023-02-12T13:06:40.106Z,7.91
2023-02-12T13:09:36.765Z,7.90
2023-02-12T13:12:39.363Z,7.66
2023-02-12T13:15:27.014Z,7.54
2023-02-12T13:18:12.551Z,7.48
2023-02-12T13:20:42.654Z,7.51
2023-02-12T13:23:15.779Z,7.57
2023-02-12T13:26:04.648Z,7.55
2023-02-12T13:28:34.909Z,7.55
2023-02-12T13:31:01.344Z,7.54
2023-02-12T13:33:39.153Z,7.54
2023-02-12T13:36:06.054Z,7.50
2023-02-12T13:38:44.215Z,7.59
2023-02-12T13:41:10.866Z,7.56
2023-02-12T13:43:49.222Z,7.54
2023-02-12T13:46:21.700Z,7.56
2023-02-12T13:49:18.697Z,7.49
2023-02-12T13:51:47.252Z,7.58
2023-02-12T13:54:35.065Z,7.47
2023-02-12T13:57:02.106Z,7.41
2023-02-12T13:59:31.954Z,7.45
2023-02-12T14:02:25.193Z,7.46
2023-02-12T14:04:56.619Z,7.43
2023-02-12T14:07:23.081Z,7.42
2023-02-12T14:09:49.447Z,7.33
2023-02-12T14:12:24.957Z,7.21
2023-02-12T14:14:53.611Z,7.16
2023-02-12T14:17:29.214Z,7.02
2023-02-12T14:20:27.139Z,7.09
2023-02-12T14:22:58.028Z,7.17
2023-02-12T14:25:24.412Z,7.21
2023-02-12T14:28:21.323Z,7.20
2023-02-12T14:30:47.911Z,7.20
2023-02-12T14:33:21.077Z,7.20
2023-02-12T14:36:20.774Z,7.19
2023-02-12T14:38:48.064Z,7.19
2023-02-12T14:41:34.036Z,7.29
2023-02-12T14:44:23.224Z,7.19
2023-02-12T14:46:59.831Z,7.05
2023-02-12T14:49:46.549Z,7.17
2023-02-12T14:52:12.844Z,7.11
2023-02-12T14:54:46.225Z,7.04
2023-02-12T14:57:30.064Z,7.08
2023-02-12T15:00:16.770Z,7.06
2023-02-12T15:02:50.985Z,6.96
2023-02-12T15:05:25.984Z,6.97
2023-02-12T15:08:00.643Z,6.93
2023-02-12T15:10:33.101Z,6.83
2023-02-12T15:13:08.076Z,6.93
2023-02-12T15:15:51.266Z,6.90
2023-02-12T15:18:37.326Z,6.88
2023-02-12T15:21:09.849Z,6.84
2023-02-12T15:23:46.049Z,6.86
2023-02-12T15:26:18.037Z,6.92
2023-02-12T15:28:46.672Z,6.86
2023-02-12T15:31:19.533Z,6.85
2023-02-12T15:33:49.175Z,6.82
2023-02-12T15:36:20.846Z,6.77
2023-02-12T15:38:54.092Z,6.87
2023-02-12T15:41:28.431Z,6.84
2023-02-12T15:43:54.958Z,6.72
2023-02-12T15:46:21.507Z,6.77
2023-02-12T15:48:48.105Z,6.67
2023-02-12T15:51:30.411Z,6.78
2023-02-12T15:53:57.446Z,6.82
2023-02-12T15:56:24.458Z,6.80
2023-02-12T15:58:55.531Z,6.71
2023-02-12T16:01:27.063Z,6.60
2023-02-12T16:03:55.668Z,6.69
2023-02-12T16:06:22.457Z,6.54
2023-02-12T16:09:15.094Z,6.59
2023-02-12T16:11:45.699Z,6.57
2023-02-12T16:14:36.605Z,6.43
2023-02-12T16:17:03.162Z,6.51
2023-02-12T16:19:32.836Z,6.47
2023-02-12T16:22:06.955Z,6.39
2023-02-12T16:24:35.392Z,6.47
2023-02-12T16:27:08.324Z,6.41
2023-02-12T16:29:37.029Z,6.39
2023-02-12T16:32:03.625Z,6.40
2023-02-12T16:34:37.456Z,6.35
2023-02-12T16:37:41.037Z,6.31
2023-02-12T16:40:21.875Z,6.32
2023-02-12T16:42:48.180Z,6.37
2023-02-12T16:45:27.378Z,6.27
2023-02-12T16:48:06.900Z,6.26
2023-02-12T16:50:36.378Z,6.19
2023-02-12T16:53:04.562Z,6.13
2023-02-12T16:55:31.019Z,6.25
2023-02-12T16:57:57.513Z,6.19
2023-02-12T17:00:24.904Z,6.13
2023-02-12T17:02:51.421Z,6.08
2023-02-12T17:05:18.403Z,6.04
2023-02-12T17:07:45.017Z,6.15
2023-02-12T17:10:15.049Z,6.27
2023-02-12T17:12:59.765Z,6.42
2023-02-12T17:15:28.819Z,6.45
2023-02-12T17:17:55.325Z,6.38
2023-02-12T17:20:21.817Z,6.15
2023-02-12T17:22:50.713Z,6.27
2023-02-12T17:25:17.286Z,6.38
2023-02-12T17:27:43.752Z,6.31
2023-02-12T17:30:14.274Z,6.34
2023-02-12T17:32:40.744Z,6.16
2023-02-12T17:35:07.535Z,6.27
2023-02-12T17:37:34.096Z,6.41
2023-02-12T17:40:01.394Z,6.48
2023-02-12T17:42:27.895Z,6.34
2023-02-12T17:44:54.552Z,6.11
2023-02-12T17:47:21.064Z,6.09
2023-02-12T17:49:47.676Z,6.01
2023-02-12T17:52:14.170Z,6.33
2023-02-12T17:54:40.643Z,6.31
2023-02-12T17:57:07.154Z,6.29
2023-02-12T17:59:33.642Z,6.14
2023-02-12T18:02:00.456Z,6.13
2023-02-12T18:04:27.150Z,6.14
2023-02-12T18:06:53.684Z,6.14
2023-02-12T18:09:20.161Z,6.26
2023-02-12T18:11:46.628Z,6.22
2023-02-12T18:14:13.092Z,6.18
2023-02-12T18:16:39.610Z,6.08
2023-02-12T18:19:06.551Z,6.14
2023-02-12T18:21:34.897Z,6.12
2023-02-12T18:24:01.438Z,6.28
2023-02-12T18:26:27.961Z,6.35
2023-02-12T18:28:56.222Z,6.26
2023-02-12T18:31:22.816Z,6.34
2023-02-12T18:33:49.345Z,6.12
2023-02-12T18:36:17.863Z,5.97
2023-02-12T18:38:45.256Z,5.93
2023-02-12T18:41:19.693Z,5.96
2023-02-12T18:43:46.533Z,6.22
2023-02-12T18:46:18.206Z,6.06
2023-02-12T18:48:44.986Z,6.01
2023-02-12T18:51:14.327Z,5.92
2023-02-12T18:53:41.089Z,5.89
2023-02-12T18:56:08.533Z,5.96
2023-02-12T18:58:35.212Z,5.85
2023-02-12T19:01:01.725Z,5.86
2023-02-12T19:03:28.227Z,6.02
2023-02-12T19:05:54.707Z,6.03
2023-02-12T19:08:21.195Z,6.06
2023-02-12T19:10:49.448Z,6.07
2023-02-12T19:13:15.997Z,6.06
2023-02-12T19:15:42.583Z,6.11
2023-02-12T19:18:09.089Z,5.98
2023-02-12T19:20:35.582Z,6.11
2023-02-12T19:23:02.081Z,6.05
2023-02-12T19:25:28.855Z,5.89
2023-02-12T19:27:55.338Z,6.00
2023-02-12T19:30:21.871Z,5.87
2023-02-12T19:32:48.340Z,5.85
2023-02-12T19:35:14.825Z,6.00
2023-02-12T19:37:41.314Z,6.08
2023-02-12T19:40:08.107Z,5.94
2023-02-12T19:42:34.778Z,5.85
2023-02-12T19:45:01.269Z,6.06
2023-02-12T19:47:27.749Z,6.01
2023-02-12T19:49:54.755Z,6.00
2023-02-12T19:52:21.221Z,5.87
2023-02-12T19:54:47.704Z,5.86
2023-02-12T19:57:15.113Z,6.02
2023-02-12T19:59:42.000Z,6.13
2023-02-12T20:02:09.701Z,6.03
2023-02-12T20:04:36.871Z,6.16
2023-02-12T20:07:03.394Z,6.19
2023-02-12T20:09:29.889Z,6.10
2023-02-12T20:11:57.218Z,5.99
2023-02-12T20:14:23.906Z,6.09
2023-02-12T20:16:50.880Z,6.06
2023-02-12T20:19:20.738Z,5.97
2023-02-12T20:21:53.097Z,5.96
2023-02-12T20:24:20.549Z,6.11
2023-02-12T20:26:47.021Z,6.09
2023-02-12T20:29:13.528Z,6.06
2023-02-12T20:31:40.042Z,6.05
2023-02-12T20:34:08.221Z,6.06
2023-02-12T20:36:36.667Z,5.95
2023-02-12T20:39:03.424Z,5.84
2023-02-12T20:41:29.996Z,5.83
2023-02-12T20:44:00.067Z,5.97
2023-02-12T20:46:26.744Z,6.05
2023-02-12T20:48:54.302Z,6.04
2023-02-12T20:51:22.141Z,6.08
2023-02-12T20:53:48.992Z,5.98
2023-02-12T20:56:17.188Z,5.74
2023-02-12T20:58:44.895Z,5.65
2023-02-12T21:01:21.076Z,5.68
2023-02-12T21:03:48.070Z,5.65
2023-02-12T21:06:14.646Z,5.71
2023-02-12T21:08:41.458Z,5.77
2023-02-12T21:11:12.916Z,5.81
2023-02-12T21:13:39.401Z,5.86
2023-02-12T21:16:16.348Z,5.77
2023-02-12T21:18:42.985Z,5.82
2023-02-12T21:21:14.816Z,5.80
2023-02-12T21:23:41.639Z,5.92
2023-02-12T21:26:18.166Z,5.96
2023-02-12T21:28:45.363Z,6.00
2023-02-12T21:31:25.249Z,5.92
2023-02-12T21:33:52.599Z,5.94
2023-02-12T21:36:23.839Z,5.85
2023-02-12T21:38:50.590Z,5.87
2023-02-12T21:41:20.940Z,5.89
2023-02-12T21:43:50.464Z,5.88
2023-02-12T21:46:17.435Z,5.83
2023-02-12T21:48:44.603Z,5.82
2023-02-12T21:51:17.000Z,5.91
2023-02-12T21:53:43.482Z,5.77
2023-02-12T21:56:10.012Z,5.71
2023-02-12T21:58:36.736Z,5.78
2023-02-12T22:01:10.799Z,5.82
2023-02-12T22:03:37.310Z,5.80
2023-02-12T22:06:04.872Z,5.92
2023-02-12T22:08:31.555Z,5.84
2023-02-12T22:10:58.402Z,5.91
2023-02-12T22:13:25.085Z,5.82
2023-02-12T22:15:51.568Z,5.83
2023-02-12T22:18:18.044Z,5.89
2023-02-12T22:20:44.499Z,5.87
2023-02-12T22:23:11.564Z,5.90
2023-02-12T22:25:38.039Z,5.93
2023-02-12T22:28:04.675Z,5.92
2023-02-12T22:30:31.273Z,5.89
2023-02-12T22:32:57.748Z,5.87
2023-02-12T22:35:24.238Z,5.94
2023-02-12T22:37:50.714Z,5.97
2023-02-12T22:40:17.244Z,5.94
2023-02-12T22:42:43.704Z,5.84
2023-02-12T22:45:10.274Z,5.94
2023-02-12T22:47:36.741Z,5.85
2023-02-12T22:50:03.389Z,5.84
2023-02-12T22:52:31.248Z,5.85
2023-02-12T22:54:58.017Z,5.78
2023-02-12T22:57:24.488Z,5.89
2023-02-12T22:59:50.970Z,5.81
2023-02-12T23:02:17.481Z,5.79
2023-02-12T23:04:43.995Z,5.74
2023-02-12T23:07:10.457Z,5.78
2023-02-12T23:09:37.000Z,5.84
2023-02-12T23:12:07.453Z,5.80
2023-02-12T23:14:36.215Z,5.81
2023-02-12T23:17:03.894Z,5.82
2023-02-12T23:19:30.459Z,5.80
2023-02-12T23:21:57.288Z,5.84
2023-02-12T23:24:25.612Z,5.81
2023-02-12T23:26:53.296Z,5.81
2023-02-12T23:29:19.870Z,5.78
2023-02-12T23:31:46.475Z,5.78
2023-02-12T23:34:13.078Z,5.73
2023-02-12T23:36:39.851Z,5.75
2023-02-12T23:39:06.433Z,5.73
2023-02-12T23:41:32.970Z,5.70
2023-02-12T23:43:59.462Z,5.67
2023-02-12T23:46:26.033Z,5.72
2023-02-12T23:48:52.614Z,5.72
2023-02-12T23:51:19.108Z,5.69
2023-02-12T23:53:45.580Z,5.71
2023-02-12T23:56:12.078Z,5.70
2023-02-12T23:58:38.531Z,5.72
